Time;durP1;ratioP1;P1;durP2;ratioP2;P2;SDS_P1;SDS_P2;PMS_P1;PMS_P2;Temp;Humidity;BMP_temperature;BMP_pressure;BME280_temperature;BME280_humidity;BME280_pressure;Samples;Min_cycle;Max_cycle;Signal;HPM_P1;HPM_P2
2023/09/08 00:02:17;;;;;;;9.63;5.47;;;20.70;91.40;;;;;;6211502;23;20005;-65
2023/09/08 00:05:03;;;;;;;8.77;4.75;;;20.60;91.40;;;;;;6210989;23;20090;-65
2023/09/08 00:07:49;;;;;;;10.35;5.50;;;20.60;91.50;;;;;;6210055;23;20005;-65
2023/09/08 00:10:35;;;;;;;8.80;5.18;;;20.60;91.50;;;;;;6211738;23;20051;-65
2023/09/08 00:13:21;;;;;;;8.35;5.85;;;20.60;91.50;;;;;;6210968;23;20015;-65
2023/09/08 00:16:07;;;;;;;7.15;5.22;;;20.50;91.60;;;;;;6212182;23;20009;-74
2023/09/08 00:18:53;;;;;;;10.98;5.22;;;20.50;91.70;;;;;;6209434;23;20063;-73
2023/09/08 00:21:39;;;;;;;7.60;5.53;;;20.50;91.70;;;;;;6210975;23;20011;-73
2023/09/08 00:24:25;;;;;;;9.05;6.07;;;20.50;91.80;;;;;;6211501;23;20012;-73
2023/09/08 00:27:11;;;;;;;11.13;5.60;;;20.40;91.90;;;;;;6211457;23;20043;-73
2023/09/08 00:29:57;;;;;;;8.32;5.65;;;20.40;91.90;;;;;;6210620;23;20044;-73
2023/09/08 00:32:43;;;;;;;9.30;5.13;;;20.40;92.00;;;;;;6211271;23;20000;-72
2023/09/08 00:35:29;;;;;;;7.72;5.18;;;20.40;92.10;;;;;;6211247;23;20016;-73
2023/09/08 00:38:15;;;;;;;10.57;6.28;;;20.40;92.20;;;;;;6212188;23;20088;-73
2023/09/08 00:41:01;;;;;;;7.07;5.35;;;20.30;92.20;;;;;;6210831;23;20012;-72
2023/09/08 00:43:47;;;;;;;8.68;5.78;;;20.30;92.30;;;;;;6212022;23;20000;-73
2023/09/08 00:46:33;;;;;;;7.03;5.22;;;20.30;92.30;;;;;;6211543;23;20036;-73
2023/09/08 00:49:20;;;;;;;7.25;5.65;;;20.20;92.40;;;;;;6210217;23;20020;-73
2023/09/08 00:52:06;;;;;;;8.82;5.18;;;20.20;92.40;;;;;;6210470;23;20016;-72
2023/09/08 00:54:52;;;;;;;9.10;6.03;;;20.20;92.50;;;;;;6209978;23;20008;-72
2023/09/08 00:57:38;;;;;;;8.95;5.47;;;20.20;92.60;;;;;;6210119;23;20083;-73
2023/09/08 01:00:27;;;;;;;9.15;5.40;;;20.20;92.70;;;;;;6211376;23;20012;-73
2023/09/08 01:03:13;;;;;;;7.85;5.63;;;20.10;92.80;;;;;;6209547;23;20035;-73
2023/09/08 01:05:59;;;;;;;9.40;5.40;;;20.10;92.80;;;;;;6210674;23;20008;-79
2023/09/08 01:08:45;;;;;;;7.57;5.50;;;20.10;92.80;;;;;;6209420;23;20063;-74
2023/09/08 01:11:32;;;;;;;10.65;6.43;;;20.10;92.90;;;;;;6211641;23;20031;-74
2023/09/08 01:14:19;;;;;;;8.25;5.40;;;20.00;92.90;;;;;;6209863;23;20008;-75
2023/09/08 01:17:05;;;;;;;7.70;5.93;;;20.00;93.00;;;;;;6209851;23;20379;-75
2023/09/08 01:19:55;;;;;;;9.45;5.07;;;20.00;93.10;;;;;;6211885;23;20017;-74
2023/09/08 01:23:21;;;;;;;9.80;6.13;;;20.00;93.20;;;;;;6209191;23;20032;-75
2023/09/08 01:26:13;;;;;;;8.02;5.65;;;19.90;93.10;;;;;;6211061;23;20082;-72
2023/09/08 01:29:01;;;;;;;8.30;5.72;;;19.90;93.20;;;;;;6208075;23;20175;-73
2023/09/08 01:31:47;;;;;;;8.40;5.70;;;19.90;93.30;;;;;;6209535;23;20339;-73
2023/09/08 01:34:34;;;;;;;11.07;5.85;;;19.90;93.30;;;;;;6210703;23;20000;-73
2023/09/08 01:37:23;;;;;;;8.52;6.15;;;19.90;93.40;;;;;;6209124;23;20005;-75
2023/09/08 01:40:10;;;;;;;7.18;5.03;;;19.80;93.50;;;;;;6210142;23;20318;-76
2023/09/08 01:42:56;;;;;;;7.93;5.72;;;19.80;93.50;;;;;;6209660;23;20062;-73
2023/09/08 01:45:42;;;;;;;8.57;5.40;;;19.80;93.60;;;;;;6212103;23;20008;-73
2023/09/08 01:48:28;;;;;;;8.65;5.63;;;19.80;93.70;;;;;;6214384;23;20088;-73
2023/09/08 01:51:14;;;;;;;7.47;5.68;;;19.80;93.80;;;;;;6217143;23;20045;-73
2023/09/08 01:53:59;;;;;;;10.35;6.25;;;19.70;93.80;;;;;;6211533;23;20013;-74
2023/09/08 01:56:45;;;;;;;11.43;6.68;;;19.70;93.80;;;;;;6210345;23;20001;-74
2023/09/08 01:59:32;;;;;;;12.30;7.07;;;19.70;93.80;;;;;;6211137;23;20446;-74
2023/09/08 02:02:17;;;;;;;7.80;5.20;;;19.70;93.90;;;;;;6208858;23;20005;-75
2023/09/08 02:05:04;;;;;;;7.70;5.57;;;19.60;94.00;;;;;;6210453;23;20397;-74
2023/09/08 02:07:50;;;;;;;9.02;6.38;;;19.60;94.00;;;;;;6209891;23;20501;-74
2023/09/08 02:10:38;;;;;;;10.18;6.18;;;19.60;94.00;;;;;;6210145;23;20099;-74
2023/09/08 02:13:24;;;;;;;9.90;6.28;;;19.60;94.10;;;;;;6208906;23;20453;-74
2023/09/08 02:16:16;;;;;;;10.75;6.57;;;19.50;94.10;;;;;;6210994;23;20009;-73
2023/09/08 02:19:02;;;;;;;9.15;6.70;;;19.50;94.20;;;;;;6210539;23;20066;-73
2023/09/08 02:21:49;;;;;;;8.70;5.93;;;19.50;94.20;;;;;;6210928;23;20080;-73
2023/09/08 02:24:34;;;;;;;10.73;6.03;;;19.40;94.20;;;;;;6210637;23;20009;-73
2023/09/08 02:27:21;;;;;;;9.35;6.07;;;19.40;94.30;;;;;;6211936;23;20023;-72
2023/09/08 02:30:07;;;;;;;9.98;6.15;;;19.40;94.30;;;;;;6207829;23;20020;-72
2023/09/08 02:32:54;;;;;;;7.63;6.00;;;19.40;94.40;;;;;;6210884;23;20004;-73
2023/09/08 02:35:40;;;;;;;9.77;6.10;;;19.30;94.70;;;;;;6209018;23;20020;-73
2023/09/08 02:38:26;;;;;;;9.98;6.43;;;19.30;94.50;;;;;;6211521;23;20018;-72
2023/09/08 02:41:12;;;;;;;7.78;5.47;;;19.30;94.60;;;;;;6211558;23;20020;-75
2023/09/08 02:43:58;;;;;;;9.43;6.30;;;19.30;94.70;;;;;;6210632;23;20020;-76
2023/09/08 02:46:44;;;;;;;9.73;6.95;;;19.20;94.70;;;;;;6210498;23;20346;-75
2023/09/08 02:49:30;;;;;;;10.27;6.95;;;19.20;94.70;;;;;;6210413;23;20079;-76
2023/09/08 02:52:16;;;;;;;9.57;6.55;;;19.20;94.80;;;;;;6211372;23;20009;-76
2023/09/08 02:55:02;;;;;;;9.05;6.57;;;19.10;94.90;;;;;;6212720;23;20012;-75
2023/09/08 02:57:48;;;;;;;8.73;6.88;;;19.10;94.90;;;;;;6210715;23;20035;-75
2023/09/08 03:00:34;;;;;;;8.85;6.53;;;19.10;95.00;;;;;;6212825;23;20039;-75
2023/09/08 03:03:20;;;;;;;8.82;6.57;;;19.10;95.00;;;;;;6211978;23;20039;-75
2023/09/08 03:06:06;;;;;;;8.05;6.03;;;19.10;95.10;;;;;;6213894;23;20098;-76
2023/09/08 03:08:52;;;;;;;8.50;6.40;;;19.00;95.10;;;;;;6217289;23;20004;-75
2023/09/08 03:11:38;;;;;;;9.30;6.30;;;19.10;95.40;;;;;;6217392;23;20490;-76
2023/09/08 03:14:23;;;;;;;9.82;6.68;;;19.00;95.20;;;;;;6216042;23;20004;-76
2023/09/08 03:17:09;;;;;;;11.23;7.32;;;19.00;95.30;;;;;;6212588;23;20346;-76
2023/09/08 03:19:55;;;;;;;8.43;6.10;;;19.00;95.30;;;;;;6211660;23;20000;-75
2023/09/08 03:22:41;;;;;;;9.73;7.20;;;19.00;95.40;;;;;;6212581;23;20009;-74
2023/09/08 03:25:27;;;;;;;7.47;5.93;;;19.00;95.40;;;;;;6212342;23;20148;-75
2023/09/08 03:28:15;;;;;;;8.52;6.40;;;18.90;95.50;;;;;;6211615;23;20012;-75
2023/09/08 03:31:01;;;;;;;9.02;6.63;;;18.90;95.60;;;;;;6209193;23;20020;-75
2023/09/08 03:33:47;;;;;;;11.18;6.68;;;18.90;95.60;;;;;;6213299;23;20009;-75
2023/09/08 03:36:35;;;;;;;9.70;6.93;;;18.90;95.60;;;;;;6212567;23;20143;-75
2023/09/08 03:39:21;;;;;;;10.02;7.35;;;18.80;95.70;;;;;;6210661;23;20004;-74
2023/09/08 03:42:07;;;;;;;10.18;6.20;;;18.80;95.70;;;;;;6211694;23;20351;-75
2023/09/08 03:44:53;;;;;;;8.63;6.60;;;18.80;95.80;;;;;;6211692;23;20087;-74
2023/09/08 03:47:39;;;;;;;9.75;6.80;;;18.80;95.80;;;;;;6212597;23;20005;-75
2023/09/08 03:50:25;;;;;;;11.65;7.35;;;18.70;95.90;;;;;;6212399;23;20454;-77
2023/09/08 03:53:13;;;;;;;10.80;7.43;;;18.70;95.90;;;;;;6212141;23;20561;-75
2023/09/08 03:55:59;;;;;;;10.68;6.85;;;18.70;96.00;;;;;;6210375;23;20100;-75
2023/09/08 03:58:44;;;;;;;7.93;6.20;;;18.70;96.00;;;;;;6211894;23;20004;-75
2023/09/08 04:01:30;;;;;;;9.63;6.88;;;18.70;96.10;;;;;;6211436;23;20009;-75
2023/09/08 04:04:17;;;;;;;9.07;6.85;;;18.60;96.10;;;;;;6212717;23;20004;-75
2023/09/08 04:07:03;;;;;;;10.85;7.38;;;18.60;96.20;;;;;;6209875;23;20087;-75
2023/09/08 04:09:49;;;;;;;11.68;7.57;;;18.50;96.30;;;;;;6212833;23;20343;-75
2023/09/08 04:12:35;;;;;;;10.05;7.40;;;18.50;96.40;;;;;;6210669;23;20004;-74
2023/09/08 04:15:21;;;;;;;11.13;7.45;;;18.50;96.50;;;;;;6211730;23;20008;-75
2023/09/08 04:18:07;;;;;;;10.15;7.15;;;18.50;96.50;;;;;;6209889;23;20431;-75
2023/09/08 04:20:53;;;;;;;10.00;7.35;;;18.50;96.60;;;;;;6209737;23;20016;-75
2023/09/08 04:23:39;;;;;;;10.85;7.72;;;18.40;96.70;;;;;;6211316;23;20139;-73
2023/09/08 04:26:25;;;;;;;12.55;7.57;;;18.40;96.80;;;;;;6212468;23;20088;-74
2023/09/08 04:29:11;;;;;;;11.90;7.63;;;18.40;96.90;;;;;;6210917;23;20011;-73
2023/09/08 04:31:57;;;;;;;10.63;7.75;;;18.40;96.90;;;;;;6209980;23;20012;-75
2023/09/08 04:34:43;;;;;;;12.55;8.10;;;18.40;97.00;;;;;;6212580;23;20036;-75
2023/09/08 04:37:30;;;;;;;10.80;8.10;;;18.40;97.10;;;;;;6210024;23;20096;-74
2023/09/08 04:40:16;;;;;;;12.57;8.18;;;18.30;97.40;;;;;;6207980;23;20462;-75
2023/09/08 04:43:02;;;;;;;11.60;7.63;;;18.30;97.20;;;;;;6211674;23;20015;-73
2023/09/08 04:45:48;;;;;;;10.95;7.60;;;18.30;97.30;;;;;;6209632;23;20005;-74
2023/09/08 04:48:34;;;;;;;9.75;7.45;;;18.30;97.30;;;;;;6211444;23;20017;-74
2023/09/08 04:51:20;;;;;;;10.50;7.63;;;18.30;97.40;;;;;;6210962;23;20141;-73
2023/09/08 04:54:06;;;;;;;12.15;8.05;;;18.30;97.50;;;;;;6210760;23;20012;-72
2023/09/08 04:56:52;;;;;;;11.98;8.23;;;18.30;97.70;;;;;;6211334;23;20091;-73
2023/09/08 04:59:39;;;;;;;10.30;8.00;;;18.30;97.50;;;;;;6209425;23;20008;-71
2023/09/08 05:02:25;;;;;;;11.88;8.32;;;18.40;97.60;;;;;;6210838;23;20032;-73
2023/09/08 05:05:11;;;;;;;9.38;7.30;;;18.30;97.60;;;;;;6212508;23;20516;-71
2023/09/08 05:07:57;;;;;;;10.18;6.75;;;18.30;97.70;;;;;;6211128;23;20505;-70
2023/09/08 05:10:46;;;;;;;10.20;7.47;;;18.30;97.70;;;;;;6212975;23;20019;-71
2023/09/08 05:13:32;;;;;;;10.93;7.68;;;18.40;97.80;;;;;;6210518;23;20062;-73
2023/09/08 05:16:19;;;;;;;11.38;8.60;;;18.40;97.80;;;;;;6217370;23;20004;-72
2023/09/08 05:19:05;;;;;;;13.02;7.78;;;18.40;97.90;;;;;;6214520;23;20009;-73
2023/09/08 05:21:53;;;;;;;10.52;6.78;;;18.40;97.90;;;;;;6209383;23;20008;-74
2023/09/08 05:24:39;;;;;;;12.45;7.78;;;18.40;97.90;;;;;;6210548;23;20001;-75
2023/09/08 05:27:25;;;;;;;10.70;8.07;;;18.40;97.90;;;;;;6210861;23;20018;-75
2023/09/08 05:30:11;;;;;;;12.23;7.93;;;18.40;97.90;;;;;;6208243;23;20095;-72
2023/09/08 05:32:57;;;;;;;9.05;7.60;;;18.40;98.00;;;;;;6208609;23;20009;-72
2023/09/08 05:35:44;;;;;;;8.43;6.75;;;18.40;98.00;;;;;;6210258;23;20446;-72
2023/09/08 05:38:30;;;;;;;11.35;7.75;;;18.40;98.00;;;;;;6209158;23;20004;-72
2023/09/08 05:41:16;;;;;;;10.27;7.72;;;18.50;98.00;;;;;;6209270;23;20016;-71
2023/09/08 05:44:02;;;;;;;9.57;7.50;;;18.50;98.00;;;;;;6210243;23;20036;-72
2023/09/08 05:46:48;;;;;;;9.50;7.13;;;18.50;97.90;;;;;;6208100;23;20044;-71
2023/09/08 05:49:34;;;;;;;13.38;8.15;;;18.50;97.90;;;;;;6208960;23;20028;-71
2023/09/08 05:52:20;;;;;;;9.48;7.18;;;18.50;97.90;;;;;;6209853;23;20342;-72
2023/09/08 05:55:06;;;;;;;11.63;8.13;;;18.50;97.90;;;;;;6210484;23;20012;-72
2023/09/08 05:57:52;;;;;;;11.77;8.27;;;18.60;97.90;;;;;;6210286;23;20014;-72
2023/09/08 06:00:38;;;;;;;11.15;8.10;;;18.60;98.00;;;;;;6209505;23;20008;-71
2023/09/08 06:03:24;;;;;;;11.73;7.72;;;18.60;97.90;;;;;;6210499;23;20043;-71
2023/09/08 06:06:10;;;;;;;9.13;7.18;;;18.60;98.00;;;;;;6210344;23;20008;-72
2023/09/08 06:08:56;;;;;;;15.35;9.00;;;18.60;97.90;;;;;;6210021;23;20051;-71
2023/09/08 06:11:42;;;;;;;11.98;8.18;;;18.70;98.00;;;;;;6210115;23;20031;-72
2023/09/08 06:14:28;;;;;;;11.63;8.65;;;18.70;98.00;;;;;;6211137;23;20008;-71
2023/09/08 06:17:14;;;;;;;12.13;7.28;;;18.80;98.00;;;;;;6210755;23;20390;-71
2023/09/08 06:20:00;;;;;;;10.05;7.43;;;18.80;98.00;;;;;;6210583;23;20466;-70
2023/09/08 06:22:46;;;;;;;14.38;7.63;;;18.80;98.00;;;;;;6210126;23;20458;-71
2023/09/08 06:25:31;;;;;;;11.70;7.80;;;18.90;98.00;;;;;;6209826;23;20008;-73
2023/09/08 06:28:17;;;;;;;9.43;7.35;;;18.90;98.00;;;;;;6213139;23;20011;-74
2023/09/08 06:31:04;;;;;;;11.75;7.95;;;19.00;98.00;;;;;;6212155;23;20012;-68
2023/09/08 06:33:51;;;;;;;12.70;7.57;;;19.00;98.00;;;;;;6209262;23;20011;-69
2023/09/08 06:36:37;;;;;;;13.90;7.90;;;19.10;98.40;;;;;;6210567;23;20083;-71
2023/09/08 06:39:26;;;;;;;10.82;7.60;;;19.10;98.30;;;;;;6212400;23;20004;-69
2023/09/08 06:42:12;;;;;;;11.32;7.93;;;19.20;98.10;;;;;;6209982;23;20012;-69
2023/09/08 06:44:59;;;;;;;13.45;7.88;;;19.30;98.10;;;;;;6214196;23;20450;-65
2023/09/08 06:47:45;;;;;;;14.05;8.68;;;19.30;98.10;;;;;;6209721;23;20239;-65
2023/09/08 06:50:31;;;;;;;11.07;7.47;;;19.40;97.90;;;;;;6212262;23;20361;-65
2023/09/08 06:53:17;;;;;;;9.77;6.97;;;19.40;97.90;;;;;;6212934;23;20008;-65
2023/09/08 06:56:03;;;;;;;11.13;7.10;;;19.40;97.90;;;;;;6212007;23;20015;-65
2023/09/08 06:58:49;;;;;;;16.45;7.57;;;19.50;97.80;;;;;;6212702;23;20422;-65
2023/09/08 07:01:35;;;;;;;12.00;7.53;;;19.50;97.80;;;;;;6212118;23;20012;-65
2023/09/08 07:04:21;;;;;;;8.55;6.90;;;19.60;97.80;;;;;;6213606;23;20004;-65
2023/09/08 07:17:18;;;;;;;11.02;6.05;;;19.90;97.80;;;;;;6212767;23;20008;-65
2023/09/08 07:20:05;;;;;;;9.70;6.82;;;20.00;97.70;;;;;;6212573;23;20530;-65
2023/09/08 07:29:57;;;;;;;9.00;6.68;;;20.30;97.70;;;;;;6213570;23;20016;-65
2023/09/08 07:32:44;;;;;;;10.10;6.20;;;20.40;97.50;;;;;;6209680;23;20009;-65
2023/09/08 07:39:12;;;;;;;10.15;6.43;;;20.60;97.30;;;;;;6213348;23;20008;-66
2023/09/08 07:45:40;;;;;;;9.50;6.50;;;20.80;97.00;;;;;;6212289;23;20434;-65
2023/09/08 07:48:26;;;;;;;10.13;6.30;;;20.90;97.00;;;;;;6212277;23;20070;-64
2023/09/08 07:51:13;;;;;;;8.88;5.90;;;21.00;96.80;;;;;;6211758;23;20062;-64
2023/09/08 07:53:59;;;;;;;7.57;5.03;;;21.10;96.60;;;;;;6211885;23;20015;-65
2023/09/08 07:56:45;;;;;;;8.52;6.22;;;21.10;96.40;;;;;;6212155;23;20351;-64
2023/09/08 07:59:31;;;;;;;9.68;5.70;;;21.30;96.30;;;;;;6210935;23;20390;-65
2023/09/08 08:02:17;;;;;;;15.05;6.22;;;21.30;96.10;;;;;;6211625;23;20434;-65
2023/09/08 08:05:03;;;;;;;9.00;5.88;;;21.40;96.00;;;;;;6211887;23;20728;-65
2023/09/08 08:07:49;;;;;;;10.10;5.72;;;21.50;95.90;;;;;;6209812;23;20005;-65
2023/09/08 08:10:35;;;;;;;10.13;5.78;;;21.60;96.00;;;;;;6212884;23;20024;-65
2023/09/08 08:13:21;;;;;;;11.75;5.90;;;21.70;95.60;;;;;;6211606;23;20458;-65
2023/09/08 08:16:07;;;;;;;13.32;4.93;;;21.80;95.60;;;;;;6210128;23;20397;-65
2023/09/08 08:18:53;;;;;;;8.68;5.95;;;21.90;95.50;;;;;;6212288;23;20004;-65
2023/09/08 08:21:41;;;;;;;9.50;6.10;;;22.00;95.40;;;;;;6203448;23;20016;-65
2023/09/08 08:24:27;;;;;;;6.78;4.97;;;22.10;95.20;;;;;;6210517;23;20522;-65
2023/09/08 08:27:13;;;;;;;10.77;5.65;;;22.10;95.00;;;;;;6212021;23;20263;-67
2023/09/08 08:30:00;;;;;;;10.18;5.72;;;22.20;95.00;;;;;;6213241;23;20016;-66
2023/09/08 08:32:46;;;;;;;7.88;5.13;;;22.30;94.90;;;;;;6210150;23;20080;-66
2023/09/08 08:35:32;;;;;;;11.35;6.15;;;22.40;94.70;;;;;;6211147;23;20058;-66
2023/09/08 08:38:19;;;;;;;9.02;5.35;;;22.50;94.60;;;;;;6212601;23;20111;-72
2023/09/08 08:41:05;;;;;;;9.20;5.45;;;22.50;94.50;;;;;;6209516;23;20043;-70
2023/09/08 08:43:52;;;;;;;7.20;4.60;;;22.70;94.40;;;;;;6211758;23;19996;-73
2023/09/08 08:46:39;;;;;;;9.13;5.22;;;22.70;94.30;;;;;;6208541;23;20040;-72
2023/09/08 08:49:27;;;;;;;6.68;5.05;;;22.80;94.30;;;;;;6209421;23;20031;-71
2023/09/08 08:52:15;;;;;;;9.32;5.40;;;22.90;94.00;;;;;;6211472;23;20339;-72
2023/09/08 08:55:01;;;;;;;8.07;5.30;;;23.00;93.90;;;;;;6209295;23;20346;-72
2023/09/08 08:57:47;;;;;;;6.85;4.80;;;23.10;93.80;;;;;;6211442;23;20012;-72
2023/09/08 09:00:37;;;;;;;6.93;5.18;;;23.20;93.60;;;;;;6209823;23;20009;-68
2023/09/08 09:03:27;;;;;;;6.95;4.97;;;23.30;93.50;;;;;;6209602;23;20028;-69
2023/09/08 09:06:14;;;;;;;7.40;4.90;;;23.40;93.30;;;;;;6208674;23;20009;-71
2023/09/08 09:09:01;;;;;;;8.60;5.25;;;23.40;93.30;;;;;;6209485;23;20001;-70
2023/09/08 09:11:49;;;;;;;7.20;4.80;;;23.50;93.00;;;;;;6209847;23;20023;-69
2023/09/08 09:14:35;;;;;;;7.07;4.57;;;23.70;92.80;;;;;;6210153;23;20001;-70
2023/09/08 09:17:21;;;;;;;6.80;4.88;;;23.70;92.70;;;;;;6210314;23;20012;-70
2023/09/08 09:20:15;;;;;;;7.30;4.70;;;23.80;92.50;;;;;;6211021;23;20001;-71
2023/09/08 09:23:01;;;;;;;5.90;4.35;;;23.90;92.40;;;;;;6208999;23;20015;-70
2023/09/08 09:25:47;;;;;;;7.30;4.57;;;24.00;92.10;;;;;;6211345;23;20083;-70
2023/09/08 09:28:33;;;;;;;7.80;4.93;;;24.00;91.90;;;;;;6211056;23;20091;-70
2023/09/08 09:31:24;;;;;;;11.02;5.15;;;24.10;91.80;;;;;;6210769;23;20370;-71
2023/09/08 09:34:10;;;;;;;6.28;4.40;;;24.20;91.80;;;;;;6207661;23;20392;-71
2023/09/08 09:36:56;;;;;;;7.57;4.25;;;24.30;91.70;;;;;;6211543;23;20078;-72
2023/09/08 09:39:47;;;;;;;6.60;4.60;;;24.40;91.50;;;;;;6208703;23;20008;-70
2023/09/08 09:42:33;;;;;;;8.07;4.57;;;24.50;91.50;;;;;;6208506;23;20458;-70
2023/09/08 09:45:20;;;;;;;5.95;3.92;;;24.60;91.00;;;;;;6211710;23;20296;-72
2023/09/08 09:48:07;;;;;;;6.05;4.38;;;24.70;90.90;;;;;;6208924;23;20017;-70
2023/09/08 09:50:53;;;;;;;6.78;4.50;;;24.70;90.80;;;;;;6208483;23;20043;-71
2023/09/08 09:53:42;;;;;;;5.28;4.05;;;24.80;90.70;;;;;;6209920;23;20016;-70
2023/09/08 09:56:28;;;;;;;8.25;4.78;;;24.90;90.60;;;;;;6208164;23;20406;-70
2023/09/08 09:59:14;;;;;;;6.05;4.18;;;25.00;90.30;;;;;;6210667;23;20009;-71
2023/09/08 10:02:00;;;;;;;6.32;4.28;;;25.10;90.30;;;;;;6209909;23;20016;-70
2023/09/08 10:04:49;;;;;;;6.90;4.10;;;25.10;90.10;;;;;;6210367;23;20019;-74
2023/09/08 10:07:35;;;;;;;5.07;4.13;;;25.20;90.10;;;;;;6208381;23;20375;-72
2023/09/08 10:10:24;;;;;;;7.13;4.68;;;25.30;90.00;;;;;;6211173;23;20013;-78
2023/09/08 10:13:12;;;;;;;9.32;4.30;;;25.40;90.00;;;;;;6209080;23;20027;-71
2023/09/08 10:16:01;;;;;;;8.60;3.85;;;25.50;89.40;;;;;;6211361;23;20001;-69
2023/09/08 10:18:49;;;;;;;6.18;4.10;;;25.60;89.10;;;;;;6209597;23;20008;-69
2023/09/08 10:21:41;;;;;;;7.57;4.03;;;25.70;88.50;;;;;;6207160;23;20005;-69
2023/09/08 10:24:29;;;;;;;10.00;4.28;;;25.70;88.30;;;;;;6208771;23;20005;-69
2023/09/08 10:27:20;;;;;;;5.95;4.05;;;25.80;88.20;;;;;;6209348;23;20453;-69
2023/09/08 10:30:06;;;;;;;7.85;4.20;;;25.90;87.40;;;;;;6209195;23;20098;-69
2023/09/08 10:32:53;;;;;;;7.63;4.55;;;26.00;87.50;;;;;;6207929;23;20011;-70
2023/09/08 10:35:40;;;;;;;17.05;8.73;;;26.10;87.20;;;;;;6209337;23;20290;-69
2023/09/08 10:38:28;;;;;;;8.95;4.35;;;26.20;86.90;;;;;;6209065;23;20039;-69
2023/09/08 10:41:17;;;;;;;5.28;3.80;;;26.20;86.50;;;;;;6209522;23;20335;-70
2023/09/08 10:44:07;;;;;;;5.82;3.78;;;26.20;85.70;;;;;;6210512;23;20009;-70
2023/09/08 10:46:53;;;;;;;6.03;3.67;;;26.30;85.50;;;;;;6206819;23;20007;-69
2023/09/08 10:49:41;;;;;;;5.00;3.55;;;26.40;85.20;;;;;;6209906;23;20024;-70
2023/09/08 10:52:27;;;;;;;5.38;3.80;;;26.40;84.80;;;;;;6210089;23;20079;-70
2023/09/08 10:55:13;;;;;;;6.47;4.30;;;26.50;84.60;;;;;;6211314;23;20347;-71
2023/09/08 10:58:00;;;;;;;9.75;5.53;;;26.50;84.20;;;;;;6211281;23;20000;-70
2023/09/08 11:00:55;;;;;;;5.75;3.88;;;26.60;84.20;;;;;;6209845;23;20465;-70
2023/09/08 11:03:41;;;;;;;;;;;26.70;83.90;;;;;;6208667;23;20308;-71
2023/09/08 11:06:30;;;;;;;5.07;3.78;;;26.70;84.90;;;;;;6210109;23;19908;-70
2023/09/08 11:09:16;;;;;;;6.72;4.22;;;26.70;83.20;;;;;;6208996;23;20070;-70
2023/09/08 11:12:02;;;;;;;7.53;4.07;;;26.80;82.70;;;;;;6208386;23;20013;-71
2023/09/08 11:14:49;;;;;;;8.40;4.13;;;26.90;82.80;;;;;;6208337;23;20008;-70
2023/09/08 11:17:39;;;;;;;5.57;3.83;;;26.90;82.10;;;;;;6212051;23;20009;-70
2023/09/08 11:20:28;;;;;;;5.93;3.55;;;27.00;81.90;;;;;;6211122;23;20013;-70
2023/09/08 11:23:15;;;;;;;5.43;3.72;;;27.00;81.00;;;;;;6209645;23;20437;-72
2023/09/08 11:26:01;;;;;;;5.70;3.75;;;27.10;81.00;;;;;;6210630;23;20005;-71
2023/09/08 11:28:49;;;;;;;4.70;3.15;;;27.10;80.50;;;;;;6212098;23;20454;-72
2023/09/08 11:31:35;;;;;;;6.78;3.58;;;27.10;80.20;;;;;;6210058;23;20019;-70
2023/09/08 11:34:21;;;;;;;7.72;3.42;;;27.20;79.60;;;;;;6212169;23;20009;-71
2023/09/08 11:37:16;;;;;;;4.28;3.28;;;27.20;78.70;;;;;;6212273;23;20013;-70
2023/09/08 11:40:03;;;;;;;;;;;27.30;78.50;;;;;;6211717;23;20005;-69
2023/09/08 11:42:48;;;;;;;5.10;3.65;;;27.30;80.10;;;;;;6212433;23;19914;-71
2023/09/08 11:45:38;;;;;;;5.72;3.88;;;27.30;78.90;;;;;;6211417;23;20012;-72
2023/09/08 11:48:24;;;;;;;5.40;3.13;;;27.40;78.40;;;;;;6211069;23;20040;-75
2023/09/08 11:51:12;;;;;;;5.63;3.72;;;27.40;78.00;;;;;;6209817;23;20029;-73
2023/09/08 11:53:58;;;;;;;5.93;3.53;;;27.50;77.70;;;;;;6213783;23;20053;-72
2023/09/08 11:56:45;;;;;;;6.13;3.08;;;27.50;77.40;;;;;;6216485;23;20013;-72
2023/09/08 11:59:33;;;;;;;5.40;3.45;;;27.60;77.60;;;;;;6215916;23;20386;-73
2023/09/08 12:02:19;;;;;;;4.78;3.53;;;27.60;77.10;;;;;;6210184;23;20005;-72
2023/09/08 12:05:05;;;;;;;5.40;3.92;;;27.60;76.70;;;;;;6209164;23;20015;-73
2023/09/08 12:07:56;;;;;;;6.13;3.80;;;27.70;76.70;;;;;;6210261;23;20079;-68
2023/09/08 12:10:42;;;;;;;7.10;3.60;;;27.70;76.50;;;;;;6210069;23;20013;-69
2023/09/08 12:13:28;;;;;;;3.97;3.00;;;27.70;75.70;;;;;;6210107;23;20083;-68
2023/09/08 12:16:22;;;;;;;5.30;3.53;;;27.70;75.40;;;;;;6210901;23;20040;-68
2023/09/08 12:19:27;;;;;;;4.85;3.28;;;27.80;75.70;;;;;;6209471;23;20067;-71
2023/09/08 12:22:17;;;;;;;6.38;3.45;;;27.80;75.90;;;;;;6208861;23;20008;-67
2023/09/08 12:25:08;;;;;;;4.60;3.08;;;27.90;75.60;;;;;;6210628;23;20372;-67
2023/09/08 12:27:54;;;;;;;5.10;3.05;;;27.90;75.60;;;;;;6209916;23;20000;-67
2023/09/08 12:30:41;;;;;;;5.75;4.13;;;28.00;75.40;;;;;;6212632;23;20397;-67
2023/09/08 12:33:27;;;;;;;4.50;3.55;;;28.00;75.80;;;;;;6209664;23;20005;-67
2023/09/08 12:36:18;;;;;;;6.35;3.80;;;28.10;75.10;;;;;;6209846;23;20043;-66
2023/09/08 12:39:05;;;;;;;5.97;3.78;;;28.10;75.00;;;;;;6209393;23;20419;-67
2023/09/08 12:41:50;;;;;;;6.15;3.70;;;28.20;74.60;;;;;;6208807;23;20062;-67
2023/09/08 12:44:36;;;;;;;6.10;3.33;;;28.20;74.50;;;;;;6211692;23;20031;-67
2023/09/08 12:47:22;;;;;;;7.22;4.03;;;28.20;74.30;;;;;;6210889;23;20009;-67
2023/09/08 12:50:09;;;;;;;5.75;3.15;;;28.20;73.70;;;;;;6210621;23;20028;-67
2023/09/08 12:52:56;;;;;;;6.50;3.83;;;28.20;73.60;;;;;;6209649;23;20022;-66
2023/09/08 12:55:43;;;;;;;5.97;3.78;;;28.20;73.50;;;;;;6209595;23;20008;-68
2023/09/08 12:58:28;;;;;;;5.53;3.58;;;28.30;73.90;;;;;;6209142;23;20043;-68
2023/09/08 13:01:14;;;;;;;5.15;3.33;;;28.30;73.70;;;;;;6210642;23;20016;-67
2023/09/08 13:04:01;;;;;;;5.38;2.97;;;28.50;73.10;;;;;;6211463;23;20027;-69
2023/09/08 13:06:47;;;;;;;4.57;3.15;;;28.50;72.80;;;;;;6210024;23;20442;-68
2023/09/08 13:09:33;;;;;;;4.88;3.38;;;28.50;72.30;;;;;;6210947;23;20099;-68
2023/09/08 13:12:19;;;;;;;7.53;4.18;;;28.60;71.90;;;;;;6210200;23;20080;-68
2023/09/08 13:15:05;;;;;;;4.32;3.28;;;28.60;72.40;;;;;;6211576;23;20016;-68
2023/09/08 13:17:51;;;;;;;4.82;3.20;;;28.70;71.70;;;;;;6210315;23;20385;-68
2023/09/08 13:20:37;;;;;;;5.93;3.70;;;28.80;72.00;;;;;;6210713;23;20022;-68
2023/09/08 13:23:24;;;;;;;5.47;3.38;;;28.80;71.40;;;;;;6210665;23;20056;-68
2023/09/08 13:26:10;;;;;;;5.57;3.45;;;28.90;70.40;;;;;;6210860;23;20015;-67
2023/09/08 13:28:56;;;;;;;4.82;3.50;;;29.00;70.30;;;;;;6212415;23;20016;-67
2023/09/08 13:31:42;;;;;;;5.57;3.20;;;29.00;69.90;;;;;;6210270;23;20012;-67
2023/09/08 13:34:28;;;;;;;5.32;2.95;;;29.10;69.70;;;;;;6211021;23;20028;-67
2023/09/08 13:37:14;;;;;;;4.57;3.17;;;29.10;69.60;;;;;;6210013;23;20083;-66
2023/09/08 13:40:03;;;;;;;5.90;3.60;;;29.20;69.30;;;;;;6209215;23;20111;-66
2023/09/08 13:42:49;;;;;;;4.78;2.90;;;29.20;69.20;;;;;;6208769;23;20005;-66
2023/09/08 13:45:35;;;;;;;6.15;3.25;;;29.30;68.70;;;;;;6210238;23;20009;-66
2023/09/08 13:48:22;;;;;;;6.53;3.15;;;29.40;68.50;;;;;;6208862;23;20012;-66
2023/09/08 13:51:08;;;;;;;6.35;3.13;;;29.40;67.90;;;;;;6208972;23;20031;-66
2023/09/08 13:53:54;;;;;;;5.82;3.45;;;29.40;67.90;;;;;;6209726;23;20011;-67
2023/09/08 13:56:41;;;;;;;4.40;3.05;;;29.50;68.10;;;;;;6209832;23;20008;-67
2023/09/08 13:59:29;;;;;;;5.13;3.42;;;29.50;68.00;;;;;;6208123;23;20122;-67
2023/09/08 14:02:15;;;;;;;4.55;3.10;;;29.60;67.40;;;;;;6209277;23;20346;-71
2023/09/08 14:05:01;;;;;;;7.55;3.47;;;29.60;67.30;;;;;;6211720;23;20339;-71
2023/09/08 14:07:47;;;;;;;4.53;3.15;;;29.70;67.10;;;;;;6210344;23;20027;-71
2023/09/08 14:10:33;;;;;;;5.07;3.10;;;29.70;67.00;;;;;;6209071;23;20498;-71
2023/09/08 14:13:19;;;;;;;4.97;3.45;;;29.80;66.50;;;;;;6209113;23;20012;-71
2023/09/08 14:16:05;;;;;;;5.57;3.28;;;29.90;66.30;;;;;;6209561;23;20012;-71
2023/09/08 14:18:51;;;;;;;4.05;3.03;;;29.90;66.20;;;;;;6208297;23;20462;-71
2023/09/08 14:21:39;;;;;;;5.43;3.15;;;30.00;65.50;;;;;;6211464;23;20338;-71
2023/09/08 14:24:25;;;;;;;3.80;2.83;;;30.00;65.30;;;;;;6208585;23;20354;-71
2023/09/08 14:27:11;;;;;;;3.70;2.83;;;30.00;64.80;;;;;;6209385;23;20347;-71
2023/09/08 14:29:57;;;;;;;4.65;3.08;;;30.00;64.70;;;;;;6210158;23;20008;-71
2023/09/08 14:32:43;;;;;;;6.32;3.45;;;30.10;64.40;;;;;;6210869;23;20072;-71
2023/09/08 14:35:29;;;;;;;5.13;3.05;;;30.10;63.50;;;;;;6210767;23;20139;-71
2023/09/08 14:38:16;;;;;;;10.45;2.95;;;30.10;63.40;;;;;;6210896;23;20012;-71
2023/09/08 14:41:02;;;;;;;5.05;3.25;;;30.20;63.20;;;;;;6208378;23;20009;-72
2023/09/08 14:43:48;;;;;;;6.80;3.53;;;30.20;62.70;;;;;;6210687;23;20434;-71
2023/09/08 14:46:36;;;;;;;6.10;3.47;;;30.20;62.80;;;;;;6211134;23;20131;-71
2023/09/08 14:49:22;;;;;;;4.78;3.40;;;30.20;62.60;;;;;;6211113;23;20031;-71
2023/09/08 14:52:08;;;;;;;4.47;2.85;;;30.20;62.30;;;;;;6213208;23;20066;-71